sensor_id;sensor_type;location;lat;lon;timestamp;pressure;altitude;pressure_sealevel;temperature;humidity
49645;BME280;36494;50.730;-1.932;2022-12-22T00:02:18;99853.63;;;8.45;100.00
49645;BME280;36494;50.730;-1.932;2022-12-22T00:04:42;99848.33;;;8.41;100.00
49645;BME280;36494;50.730;-1.932;2022-12-22T00:07:07;99842.94;;;8.38;100.00
49645;BME280;36494;50.730;-1.932;2022-12-22T00:09:32;99843.05;;;8.38;100.00
49645;BME280;36494;50.730;-1.932;2022-12-22T00:11:57;99843.34;;;8.30;100.00
49645;BME280;36494;50.730;-1.932;2022-12-22T00:14:22;99844.63;;;8.35;100.00
49645;BME280;36494;50.730;-1.932;2022-12-22T00:16:47;99842.60;;;8.30;100.00
49645;BME280;36494;50.730;-1.932;2022-12-22T00:19:13;99843.51;;;8.33;100.00
49645;BME280;36494;50.730;-1.932;2022-12-22T00:21:37;99851.20;;;8.31;100.00
49645;BME280;36494;50.730;-1.932;2022-12-22T00:24:03;99859.48;;;8.33;100.00
49645;BME280;36494;50.730;-1.932;2022-12-22T00:26:30;99865.48;;;8.26;100.00
49645;BME280;36494;50.730;-1.932;2022-12-22T00:28:53;99866.27;;;8.22;100.00
49645;BME280;36494;50.730;-1.932;2022-12-22T00:31:19;99868.51;;;8.27;100.00
49645;BME280;36494;50.730;-1.932;2022-12-22T00:33:43;99869.70;;;8.25;100.00
49645;BME280;36494;50.730;-1.932;2022-12-22T00:36:10;99875.50;;;8.20;100.00
49645;BME280;36494;50.730;-1.932;2022-12-22T00:38:34;99880.52;;;8.27;100.00
49645;BME280;36494;50.730;-1.932;2022-12-22T00:41:01;99881.60;;;8.28;100.00
49645;BME280;36494;50.730;-1.932;2022-12-22T00:43:25;99884.92;;;8.28;100.00
49645;BME280;36494;50.730;-1.932;2022-12-22T00:45:51;99884.41;;;8.29;100.00
49645;BME280;36494;50.730;-1.932;2022-12-22T00:48:19;99882.69;;;8.29;100.00
49645;BME280;36494;50.730;-1.932;2022-12-22T00:50:42;99883.50;;;8.31;100.00
49645;BME280;36494;50.730;-1.932;2022-12-22T00:53:08;99883.57;;;8.27;100.00
49645;BME280;36494;50.730;-1.932;2022-12-22T00:55:33;99882.12;;;8.24;100.00
49645;BME280;36494;50.730;-1.932;2022-12-22T00:57:59;99880.85;;;8.30;100.00
49645;BME280;36494;50.730;-1.932;2022-12-22T01:00:24;99876.78;;;8.24;100.00
49645;BME280;36494;50.730;-1.932;2022-12-22T01:02:50;99879.20;;;8.15;100.00
49645;BME280;36494;50.730;-1.932;2022-12-22T01:05:15;99879.11;;;8.18;100.00
49645;BME280;36494;50.730;-1.932;2022-12-22T01:07:41;99882.04;;;8.31;100.00
49645;BME280;36494;50.730;-1.932;2022-12-22T01:10:11;99881.63;;;8.24;100.00
49645;BME280;36494;50.730;-1.932;2022-12-22T01:12:32;99884.14;;;8.29;100.00
49645;BME280;36494;50.730;-1.932;2022-12-22T01:14:56;99885.26;;;8.24;100.00
49645;BME280;36494;50.730;-1.932;2022-12-22T01:17:22;99893.14;;;8.26;100.00
49645;BME280;36494;50.730;-1.932;2022-12-22T01:19:47;99897.33;;;8.27;100.00
49645;BME280;36494;50.730;-1.932;2022-12-22T01:22:17;99897.97;;;8.25;100.00
49645;BME280;36494;50.730;-1.932;2022-12-22T01:24:39;99897.04;;;8.26;100.00
49645;BME280;36494;50.730;-1.932;2022-12-22T01:27:04;99894.96;;;8.24;100.00
49645;BME280;36494;50.730;-1.932;2022-12-22T01:29:29;99894.27;;;8.23;100.00
49645;BME280;36494;50.730;-1.932;2022-12-22T01:31:56;99898.67;;;8.28;100.00
49645;BME280;36494;50.730;-1.932;2022-12-22T01:34:20;99904.35;;;8.34;100.00
49645;BME280;36494;50.730;-1.932;2022-12-22T01:36:46;99907.23;;;8.31;100.00
49645;BME280;36494;50.730;-1.932;2022-12-22T01:39:11;99904.79;;;8.23;100.00
49645;BME280;36494;50.730;-1.932;2022-12-22T01:41:37;99900.59;;;8.26;100.00
49645;BME280;36494;50.730;-1.932;2022-12-22T01:44:12;99894.25;;;8.25;100.00
49645;BME280;36494;50.730;-1.932;2022-12-22T01:46:30;99901.23;;;8.26;100.00
49645;BME280;36494;50.730;-1.932;2022-12-22T01:48:53;99906.67;;;8.23;100.00
49645;BME280;36494;50.730;-1.932;2022-12-22T01:51:21;99909.36;;;8.28;100.00
49645;BME280;36494;50.730;-1.932;2022-12-22T01:53:44;99903.98;;;8.21;100.00
49645;BME280;36494;50.730;-1.932;2022-12-22T01:56:10;99903.62;;;8.27;100.00
49645;BME280;36494;50.730;-1.932;2022-12-22T01:58:40;99905.37;;;8.21;100.00
49645;BME280;36494;50.730;-1.932;2022-12-22T02:01:00;99900.83;;;8.18;100.00
49645;BME280;36494;50.730;-1.932;2022-12-22T02:03:25;99900.33;;;8.13;100.00
49645;BME280;36494;50.730;-1.932;2022-12-22T02:05:56;99902.64;;;8.12;100.00
49645;BME280;36494;50.730;-1.932;2022-12-22T02:08:22;99903.77;;;8.11;100.00
49645;BME280;36494;50.730;-1.932;2022-12-22T02:10:51;99911.38;;;8.05;100.00
49645;BME280;36494;50.730;-1.932;2022-12-22T02:13:14;99919.17;;;8.09;100.00
49645;BME280;36494;50.730;-1.932;2022-12-22T02:15:35;99915.49;;;8.01;100.00
49645;BME280;36494;50.730;-1.932;2022-12-22T02:18:02;99917.97;;;8.03;100.00
49645;BME280;36494;50.730;-1.932;2022-12-22T02:20:35;99917.31;;;8.00;100.00
49645;BME280;36494;50.730;-1.932;2022-12-22T02:22:54;99915.39;;;7.96;100.00
49645;BME280;36494;50.730;-1.932;2022-12-22T02:25:16;99923.27;;;7.91;100.00
49645;BME280;36494;50.730;-1.932;2022-12-22T02:27:39;99933.79;;;7.87;100.00
49645;BME280;36494;50.730;-1.932;2022-12-22T02:30:05;99942.45;;;7.92;100.00
49645;BME280;36494;50.730;-1.932;2022-12-22T02:32:32;99942.48;;;7.84;100.00
49645;BME280;36494;50.730;-1.932;2022-12-22T02:34:53;99945.40;;;7.82;100.00
49645;BME280;36494;50.730;-1.932;2022-12-22T02:37:24;99942.86;;;7.87;100.00
49645;BME280;36494;50.730;-1.932;2022-12-22T02:39:49;99938.10;;;7.81;100.00
49645;BME280;36494;50.730;-1.932;2022-12-22T02:42:15;99947.91;;;7.86;100.00
49645;BME280;36494;50.730;-1.932;2022-12-22T02:44:43;99957.10;;;7.80;100.00
49645;BME280;36494;50.730;-1.932;2022-12-22T02:47:03;99959.71;;;7.80;100.00
49645;BME280;36494;50.730;-1.932;2022-12-22T02:49:29;99964.72;;;7.78;100.00
49645;BME280;36494;50.730;-1.932;2022-12-22T02:51:56;99961.78;;;7.75;100.00
49645;BME280;36494;50.730;-1.932;2022-12-22T02:54:16;99970.71;;;7.73;100.00
49645;BME280;36494;50.730;-1.932;2022-12-22T02:56:42;99976.59;;;7.71;100.00
49645;BME280;36494;50.730;-1.932;2022-12-22T02:59:06;99988.92;;;7.77;100.00
49645;BME280;36494;50.730;-1.932;2022-12-22T03:01:32;99985.45;;;7.70;100.00
49645;BME280;36494;50.730;-1.932;2022-12-22T03:03:57;99984.31;;;7.66;100.00
49645;BME280;36494;50.730;-1.932;2022-12-22T03:06:22;99986.07;;;7.67;100.00
49645;BME280;36494;50.730;-1.932;2022-12-22T03:08:48;99990.75;;;7.68;100.00
49645;BME280;36494;50.730;-1.932;2022-12-22T03:11:13;99988.21;;;7.65;100.00
49645;BME280;36494;50.730;-1.932;2022-12-22T03:13:39;99986.62;;;7.64;100.00
49645;BME280;36494;50.730;-1.932;2022-12-22T03:16:04;99991.76;;;7.63;100.00
49645;BME280;36494;50.730;-1.932;2022-12-22T03:18:29;100001.19;;;7.65;100.00
49645;BME280;36494;50.730;-1.932;2022-12-22T03:20:55;100007.28;;;7.59;100.00
49645;BME280;36494;50.730;-1.932;2022-12-22T03:23:20;100006.21;;;7.56;100.00
49645;BME280;36494;50.730;-1.932;2022-12-22T03:25:46;100004.30;;;7.56;100.00
49645;BME280;36494;50.730;-1.932;2022-12-22T03:28:11;99996.18;;;7.54;100.00
49645;BME280;36494;50.730;-1.932;2022-12-22T03:30:37;99997.76;;;7.54;100.00
49645;BME280;36494;50.730;-1.932;2022-12-22T03:33:01;100003.82;;;7.50;100.00
49645;BME280;36494;50.730;-1.932;2022-12-22T03:35:27;100009.86;;;7.55;100.00
49645;BME280;36494;50.730;-1.932;2022-12-22T03:37:52;100012.94;;;7.64;100.00
49645;BME280;36494;50.730;-1.932;2022-12-22T03:40:17;100014.69;;;7.59;100.00
49645;BME280;36494;50.730;-1.932;2022-12-22T03:42:43;100018.18;;;7.63;100.00
49645;BME280;36494;50.730;-1.932;2022-12-22T03:45:09;100024.85;;;7.63;100.00
49645;BME280;36494;50.730;-1.932;2022-12-22T03:47:33;100032.28;;;7.62;100.00
49645;BME280;36494;50.730;-1.932;2022-12-22T03:49:59;100036.69;;;7.67;100.00
49645;BME280;36494;50.730;-1.932;2022-12-22T03:52:24;100032.58;;;7.65;100.00
49645;BME280;36494;50.730;-1.932;2022-12-22T03:54:50;100026.27;;;7.70;100.00
49645;BME280;36494;50.730;-1.932;2022-12-22T03:57:15;100025.86;;;7.70;100.00
49645;BME280;36494;50.730;-1.932;2022-12-22T03:59:40;100018.29;;;7.77;100.00
49645;BME280;36494;50.730;-1.932;2022-12-22T04:02:06;100007.06;;;7.74;100.00
49645;BME280;36494;50.730;-1.932;2022-12-22T04:04:31;100002.06;;;7.72;100.00
49645;BME280;36494;50.730;-1.932;2022-12-22T04:06:56;99998.64;;;7.77;100.00
49645;BME280;36494;50.730;-1.932;2022-12-22T04:09:22;99995.80;;;7.75;100.00
49645;BME280;36494;50.730;-1.932;2022-12-22T04:11:47;99998.44;;;7.76;100.00
49645;BME280;36494;50.730;-1.932;2022-12-22T04:14:12;99998.68;;;7.80;100.00
49645;BME280;36494;50.730;-1.932;2022-12-22T04:16:37;99999.49;;;7.88;100.00
49645;BME280;36494;50.730;-1.932;2022-12-22T04:19:03;99992.62;;;7.88;100.00
49645;BME280;36494;50.730;-1.932;2022-12-22T04:21:28;99980.80;;;7.93;100.00
49645;BME280;36494;50.730;-1.932;2022-12-22T04:23:53;99978.75;;;7.94;100.00
49645;BME280;36494;50.730;-1.932;2022-12-22T04:26:20;99974.26;;;7.95;100.00
49645;BME280;36494;50.730;-1.932;2022-12-22T04:28:44;99974.97;;;8.01;100.00
49645;BME280;36494;50.730;-1.932;2022-12-22T04:31:09;99971.51;;;8.07;100.00
49645;BME280;36494;50.730;-1.932;2022-12-22T04:33:35;99974.12;;;8.12;100.00
49645;BME280;36494;50.730;-1.932;2022-12-22T04:36:00;99975.48;;;8.15;100.00
49645;BME280;36494;50.730;-1.932;2022-12-22T04:38:25;99977.51;;;8.18;100.00
49645;BME280;36494;50.730;-1.932;2022-12-22T04:40:51;99973.29;;;8.26;100.00
49645;BME280;36494;50.730;-1.932;2022-12-22T04:43:16;99973.09;;;8.29;100.00
49645;BME280;36494;50.730;-1.932;2022-12-22T04:45:43;99975.37;;;8.34;100.00
49645;BME280;36494;50.730;-1.932;2022-12-22T04:48:07;99969.28;;;8.38;100.00
49645;BME280;36494;50.730;-1.932;2022-12-22T04:50:32;99971.84;;;8.40;100.00
49645;BME280;36494;50.730;-1.932;2022-12-22T04:52:57;99974.33;;;8.46;100.00
49645;BME280;36494;50.730;-1.932;2022-12-22T04:55:23;99974.32;;;8.51;100.00
49645;BME280;36494;50.730;-1.932;2022-12-22T04:57:48;99969.42;;;8.51;100.00
49645;BME280;36494;50.730;-1.932;2022-12-22T05:00:14;99974.23;;;8.54;100.00
49645;BME280;36494;50.730;-1.932;2022-12-22T05:02:39;99976.77;;;8.60;100.00
49645;BME280;36494;50.730;-1.932;2022-12-22T05:05:05;99970.88;;;8.63;100.00
49645;BME280;36494;50.730;-1.932;2022-12-22T05:07:29;99968.33;;;8.69;100.00
49645;BME280;36494;50.730;-1.932;2022-12-22T05:09:55;99969.54;;;8.72;100.00
49645;BME280;36494;50.730;-1.932;2022-12-22T05:12:20;99969.44;;;8.76;100.00
49645;BME280;36494;50.730;-1.932;2022-12-22T05:14:45;99962.26;;;8.85;100.00
49645;BME280;36494;50.730;-1.932;2022-12-22T05:17:11;99960.27;;;8.86;100.00
49645;BME280;36494;50.730;-1.932;2022-12-22T05:19:36;99963.06;;;8.87;100.00
49645;BME280;36494;50.730;-1.932;2022-12-22T05:22:02;99960.47;;;8.87;100.00
49645;BME280;36494;50.730;-1.932;2022-12-22T05:24:27;99950.19;;;8.93;100.00
49645;BME280;36494;50.730;-1.932;2022-12-22T05:26:52;99944.33;;;8.95;100.00
49645;BME280;36494;50.730;-1.932;2022-12-22T05:29:18;99946.82;;;8.95;100.00
49645;BME280;36494;50.730;-1.932;2022-12-22T05:31:43;99949.16;;;8.96;100.00
49645;BME280;36494;50.730;-1.932;2022-12-22T05:34:08;99952.01;;;8.93;100.00
49645;BME280;36494;50.730;-1.932;2022-12-22T05:36:34;99955.06;;;8.97;100.00
49645;BME280;36494;50.730;-1.932;2022-12-22T05:38:59;99958.44;;;8.96;100.00
49645;BME280;36494;50.730;-1.932;2022-12-22T05:41:24;99959.08;;;8.98;100.00
49645;BME280;36494;50.730;-1.932;2022-12-22T05:43:50;99957.95;;;8.99;100.00
49645;BME280;36494;50.730;-1.932;2022-12-22T05:46:15;99958.45;;;8.97;100.00
49645;BME280;36494;50.730;-1.932;2022-12-22T05:48:40;99957.20;;;9.04;100.00
49645;BME280;36494;50.730;-1.932;2022-12-22T05:51:07;99955.05;;;9.08;100.00
49645;BME280;36494;50.730;-1.932;2022-12-22T05:53:31;99953.83;;;9.09;100.00
49645;BME280;36494;50.730;-1.932;2022-12-22T05:55:56;99952.40;;;9.11;100.00
49645;BME280;36494;50.730;-1.932;2022-12-22T05:58:22;99949.95;;;9.13;100.00
49645;BME280;36494;50.730;-1.932;2022-12-22T06:00:47;99948.25;;;9.13;100.00
49645;BME280;36494;50.730;-1.932;2022-12-22T06:03:12;99948.23;;;9.18;100.00
49645;BME280;36494;50.730;-1.932;2022-12-22T06:05:38;99944.92;;;9.18;100.00
49645;BME280;36494;50.730;-1.932;2022-12-22T06:08:04;99940.58;;;9.21;100.00
49645;BME280;36494;50.730;-1.932;2022-12-22T06:10:29;99942.11;;;9.18;100.00
49645;BME280;36494;50.730;-1.932;2022-12-22T06:12:55;99935.50;;;9.23;100.00
49645;BME280;36494;50.730;-1.932;2022-12-22T06:15:19;99933.47;;;9.25;100.00
49645;BME280;36494;50.730;-1.932;2022-12-22T06:17:44;99928.09;;;9.27;100.00
49645;BME280;36494;50.730;-1.932;2022-12-22T06:20:11;99928.31;;;9.27;100.00
49645;BME280;36494;50.730;-1.932;2022-12-22T06:22:35;99923.54;;;9.32;100.00
49645;BME280;36494;50.730;-1.932;2022-12-22T06:25:01;99924.28;;;9.33;100.00
49645;BME280;36494;50.730;-1.932;2022-12-22T06:27:26;99923.36;;;9.40;100.00
49645;BME280;36494;50.730;-1.932;2022-12-22T06:29:51;99920.33;;;9.48;100.00
49645;BME280;36494;50.730;-1.932;2022-12-22T06:32:16;99922.31;;;9.46;100.00
49645;BME280;36494;50.730;-1.932;2022-12-22T06:34:42;99926.20;;;9.51;100.00
49645;BME280;36494;50.730;-1.932;2022-12-22T06:37:07;99929.40;;;9.63;100.00
49645;BME280;36494;50.730;-1.932;2022-12-22T06:39:33;99930.30;;;9.58;100.00
49645;BME280;36494;50.730;-1.932;2022-12-22T06:41:58;99927.93;;;9.64;100.00
49645;BME280;36494;50.730;-1.932;2022-12-22T06:44:24;99930.27;;;9.69;100.00
49645;BME280;36494;50.730;-1.932;2022-12-22T06:46:49;99932.06;;;9.83;100.00
49645;BME280;36494;50.730;-1.932;2022-12-22T06:49:15;99926.89;;;9.79;100.00
49645;BME280;36494;50.730;-1.932;2022-12-22T06:51:41;99921.69;;;9.88;100.00
49645;BME280;36494;50.730;-1.932;2022-12-22T06:54:07;99916.77;;;9.85;100.00
49645;BME280;36494;50.730;-1.932;2022-12-22T06:56:33;99915.83;;;9.89;100.00
49645;BME280;36494;50.730;-1.932;2022-12-22T06:58:59;99913.91;;;9.92;100.00
49645;BME280;36494;50.730;-1.932;2022-12-22T07:01:24;99913.37;;;9.90;100.00
49645;BME280;36494;50.730;-1.932;2022-12-22T07:03:49;99915.51;;;9.96;100.00
49645;BME280;36494;50.730;-1.932;2022-12-22T07:06:15;99915.18;;;10.02;100.00
49645;BME280;36494;50.730;-1.932;2022-12-22T07:08:41;99912.16;;;10.01;100.00
49645;BME280;36494;50.730;-1.932;2022-12-22T07:11:07;99910.01;;;10.07;100.00
49645;BME280;36494;50.730;-1.932;2022-12-22T07:13:33;99911.13;;;10.06;100.00
49645;BME280;36494;50.730;-1.932;2022-12-22T07:15:59;99914.18;;;10.07;100.00
49645;BME280;36494;50.730;-1.932;2022-12-22T07:18:24;99913.78;;;10.05;100.00
49645;BME280;36494;50.730;-1.932;2022-12-22T07:20:49;99913.02;;;10.02;100.00
49645;BME280;36494;50.730;-1.932;2022-12-22T07:23:15;99914.92;;;10.06;100.00
49645;BME280;36494;50.730;-1.932;2022-12-22T07:25:41;99912.49;;;10.05;100.00
49645;BME280;36494;50.730;-1.932;2022-12-22T07:28:06;99909.47;;;9.99;100.00
49645;BME280;36494;50.730;-1.932;2022-12-22T07:30:32;99906.07;;;10.07;100.00
49645;BME280;36494;50.730;-1.932;2022-12-22T07:32:57;99900.40;;;10.00;100.00
49645;BME280;36494;50.730;-1.932;2022-12-22T07:35:23;99897.51;;;10.06;100.00
49645;BME280;36494;50.730;-1.932;2022-12-22T07:37:49;99893.59;;;10.16;100.00
49645;BME280;36494;50.730;-1.932;2022-12-22T07:40:14;99885.96;;;10.19;100.00
49645;BME280;36494;50.730;-1.932;2022-12-22T07:42:39;99880.73;;;10.23;100.00
49645;BME280;36494;50.730;-1.932;2022-12-22T07:45:06;99876.10;;;10.20;100.00
49645;BME280;36494;50.730;-1.932;2022-12-22T07:47:31;99878.63;;;10.25;100.00
49645;BME280;36494;50.730;-1.932;2022-12-22T07:49:56;99879.92;;;10.21;100.00
49645;BME280;36494;50.730;-1.932;2022-12-22T07:52:21;99881.89;;;10.24;100.00
49645;BME280;36494;50.730;-1.932;2022-12-22T07:54:47;99887.26;;;10.19;100.00
49645;BME280;36494;50.730;-1.932;2022-12-22T07:57:12;99888.35;;;10.20;100.00
49645;BME280;36494;50.730;-1.932;2022-12-22T07:59:37;99890.51;;;10.22;100.00
49645;BME280;36494;50.730;-1.932;2022-12-22T08:02:02;99894.35;;;10.24;100.00
49645;BME280;36494;50.730;-1.932;2022-12-22T08:04:28;99894.65;;;10.32;100.00
49645;BME280;36494;50.730;-1.932;2022-12-22T08:06:54;99899.19;;;10.31;100.00
49645;BME280;36494;50.730;-1.932;2022-12-22T08:09:19;99902.51;;;10.22;100.00
49645;BME280;36494;50.730;-1.932;2022-12-22T08:11:44;99907.36;;;10.27;100.00
49645;BME280;36494;50.730;-1.932;2022-12-22T08:14:10;99908.11;;;10.25;100.00
49645;BME280;36494;50.730;-1.932;2022-12-22T08:16:36;99908.57;;;10.28;100.00
49645;BME280;36494;50.730;-1.932;2022-12-22T08:19:01;99904.60;;;10.26;100.00
49645;BME280;36494;50.730;-1.932;2022-12-22T08:21:26;99913.67;;;10.26;100.00
49645;BME280;36494;50.730;-1.932;2022-12-22T08:23:52;99916.86;;;10.30;100.00
49645;BME280;36494;50.730;-1.932;2022-12-22T08:26:21;99919.04;;;10.34;100.00
49645;BME280;36494;50.730;-1.932;2022-12-22T08:28:48;99917.51;;;10.33;100.00
49645;BME280;36494;50.730;-1.932;2022-12-22T08:31:09;99917.05;;;10.43;100.00
49645;BME280;36494;50.730;-1.932;2022-12-22T08:33:35;99918.83;;;10.42;100.00
49645;BME280;36494;50.730;-1.932;2022-12-22T08:36:00;99919.47;;;10.42;100.00
49645;BME280;36494;50.730;-1.932;2022-12-22T08:38:25;99915.27;;;10.37;100.00
49645;BME280;36494;50.730;-1.932;2022-12-22T08:40:50;99913.90;;;10.41;100.00
49645;BME280;36494;50.730;-1.932;2022-12-22T08:43:17;99909.76;;;10.46;100.00
49645;BME280;36494;50.730;-1.932;2022-12-22T08:45:42;99910.23;;;10.49;100.00
49645;BME280;36494;50.730;-1.932;2022-12-22T08:48:08;99907.00;;;10.48;100.00
49645;BME280;36494;50.730;-1.932;2022-12-22T08:50:32;99907.83;;;10.52;100.00
49645;BME280;36494;50.730;-1.932;2022-12-22T08:53:01;99907.66;;;10.59;100.00
49645;BME280;36494;50.730;-1.932;2022-12-22T08:55:23;99913.00;;;10.53;100.00
49645;BME280;36494;50.730;-1.932;2022-12-22T08:57:49;99909.07;;;10.50;100.00
49645;BME280;36494;50.730;-1.932;2022-12-22T09:00:14;99915.19;;;10.48;100.00
49645;BME280;36494;50.730;-1.932;2022-12-22T09:02:39;99910.75;;;10.55;100.00
49645;BME280;36494;50.730;-1.932;2022-12-22T09:05:05;99909.74;;;10.50;100.00
49645;BME280;36494;50.730;-1.932;2022-12-22T09:07:30;99903.01;;;10.56;100.00
49645;BME280;36494;50.730;-1.932;2022-12-22T09:09:55;99897.96;;;10.57;100.00
49645;BME280;36494;50.730;-1.932;2022-12-22T09:12:21;99900.60;;;10.51;100.00
49645;BME280;36494;50.730;-1.932;2022-12-22T09:14:47;99905.16;;;10.60;100.00
49645;BME280;36494;50.730;-1.932;2022-12-22T09:17:12;99901.25;;;10.49;100.00
49645;BME280;36494;50.730;-1.932;2022-12-22T09:19:38;99903.76;;;10.53;100.00
49645;BME280;36494;50.730;-1.932;2022-12-22T09:22:04;99905.18;;;10.55;100.00
49645;BME280;36494;50.730;-1.932;2022-12-22T09:24:30;99902.33;;;10.57;100.00
49645;BME280;36494;50.730;-1.932;2022-12-22T09:26:55;99900.23;;;10.47;100.00
49645;BME280;36494;50.730;-1.932;2022-12-22T09:29:21;99894.02;;;10.51;100.00
49645;BME280;36494;50.730;-1.932;2022-12-22T09:31:46;99893.62;;;10.56;100.00
49645;BME280;36494;50.730;-1.932;2022-12-22T09:34:11;99892.98;;;10.62;100.00
49645;BME280;36494;50.730;-1.932;2022-12-22T09:36:39;99894.48;;;10.62;100.00
49645;BME280;36494;50.730;-1.932;2022-12-22T09:39:04;99897.17;;;10.65;100.00
49645;BME280;36494;50.730;-1.932;2022-12-22T09:41:30;99895.68;;;10.63;100.00
49645;BME280;36494;50.730;-1.932;2022-12-22T09:43:54;99894.16;;;10.57;100.00
49645;BME280;36494;50.730;-1.932;2022-12-22T09:46:22;99901.71;;;10.59;100.00
49645;BME280;36494;50.730;-1.932;2022-12-22T09:48:45;99904.64;;;10.55;100.00
49645;BME280;36494;50.730;-1.932;2022-12-22T09:51:10;99900.51;;;10.66;100.00
49645;BME280;36494;50.730;-1.932;2022-12-22T09:53:36;99902.27;;;10.64;100.00
49645;BME280;36494;50.730;-1.932;2022-12-22T09:56:01;99909.16;;;10.65;100.00
49645;BME280;36494;50.730;-1.932;2022-12-22T09:58:29;99911.59;;;10.64;100.00
49645;BME280;36494;50.730;-1.932;2022-12-22T10:00:58;99909.35;;;10.69;100.00
49645;BME280;36494;50.730;-1.932;2022-12-22T10:03:28;99915.55;;;10.75;100.00
49645;BME280;36494;50.730;-1.932;2022-12-22T10:05:46;99911.68;;;10.72;100.00
49645;BME280;36494;50.730;-1.932;2022-12-22T10:08:10;99908.45;;;10.82;100.00
49645;BME280;36494;50.730;-1.932;2022-12-22T10:10:34;99906.20;;;10.81;100.00
49645;BME280;36494;50.730;-1.932;2022-12-22T10:13:01;99904.40;;;10.90;100.00
49645;BME280;36494;50.730;-1.932;2022-12-22T10:15:26;99909.45;;;10.82;100.00
49645;BME280;36494;50.730;-1.932;2022-12-22T10:17:53;99910.56;;;10.76;100.00
49645;BME280;36494;50.730;-1.932;2022-12-22T10:20:21;99908.73;;;10.81;100.00
49645;BME280;36494;50.730;-1.932;2022-12-22T10:22:46;99910.12;;;10.81;100.00
49645;BME280;36494;50.730;-1.932;2022-12-22T10:27:36;99913.72;;;10.84;100.00
49645;BME280;36494;50.730;-1.932;2022-12-22T10:30:18;99908.75;;;11.00;100.00
49645;BME280;36494;50.730;-1.932;2022-12-22T10:32:24;99903.79;;;10.85;100.00
49645;BME280;36494;50.730;-1.932;2022-12-22T10:34:59;99898.73;;;10.88;100.00
49645;BME280;36494;50.730;-1.932;2022-12-22T10:37:16;99891.65;;;10.95;100.00
49645;BME280;36494;50.730;-1.932;2022-12-22T10:39:41;99888.99;;;10.96;100.00
49645;BME280;36494;50.730;-1.932;2022-12-22T10:42:08;99884.05;;;10.96;100.00
49645;BME280;36494;50.730;-1.932;2022-12-22T10:44:32;99880.17;;;10.97;100.00
49645;BME280;36494;50.730;-1.932;2022-12-22T10:47:00;99878.93;;;11.00;100.00
49645;BME280;36494;50.730;-1.932;2022-12-22T10:49:25;99872.87;;;10.96;100.00
49645;BME280;36494;50.730;-1.932;2022-12-22T10:51:49;99868.44;;;10.98;100.00
49645;BME280;36494;50.730;-1.932;2022-12-22T10:54:23;99863.07;;;11.05;100.00
49645;BME280;36494;50.730;-1.932;2022-12-22T10:56:39;99861.73;;;10.94;100.00
49645;BME280;36494;50.730;-1.932;2022-12-22T10:59:12;99855.22;;;10.97;100.00
49645;BME280;36494;50.730;-1.932;2022-12-22T11:01:32;99846.75;;;10.87;100.00
49645;BME280;36494;50.730;-1.932;2022-12-22T11:03:56;99858.25;;;10.90;100.00
49645;BME280;36494;50.730;-1.932;2022-12-22T11:06:21;99849.66;;;11.00;100.00
49645;BME280;36494;50.730;-1.932;2022-12-22T11:08:46;99852.51;;;11.00;100.00
49645;BME280;36494;50.730;-1.932;2022-12-22T11:11:29;99853.37;;;11.06;100.00
49645;BME280;36494;50.730;-1.932;2022-12-22T11:13:46;99844.27;;;10.82;100.00
49645;BME280;36494;50.730;-1.932;2022-12-22T11:16:08;99845.74;;;10.77;100.00
49645;BME280;36494;50.730;-1.932;2022-12-22T11:18:37;99846.14;;;10.93;100.00
49645;BME280;36494;50.730;-1.932;2022-12-22T11:20:59;99840.82;;;10.89;100.00
49645;BME280;36494;50.730;-1.932;2022-12-22T11:23:27;99837.22;;;10.93;100.00
49645;BME280;36494;50.730;-1.932;2022-12-22T11:25:52;99828.26;;;11.06;100.00
49645;BME280;36494;50.730;-1.932;2022-12-22T11:28:21;99811.25;;;11.01;100.00
49645;BME280;36494;50.730;-1.932;2022-12-22T11:30:42;99799.61;;;10.99;100.00
49645;BME280;36494;50.730;-1.932;2022-12-22T11:33:14;99808.66;;;11.03;100.00
49645;BME280;36494;50.730;-1.932;2022-12-22T11:35:35;99806.61;;;10.99;100.00
49645;BME280;36494;50.730;-1.932;2022-12-22T11:37:54;99803.13;;;11.15;100.00
49645;BME280;36494;50.730;-1.932;2022-12-22T11:40:27;99803.76;;;11.07;100.00
49645;BME280;36494;50.730;-1.932;2022-12-22T11:42:53;99797.08;;;11.15;100.00
49645;BME280;36494;50.730;-1.932;2022-12-22T11:45:20;99804.62;;;11.01;100.00
49645;BME280;36494;50.730;-1.932;2022-12-22T11:47:42;99797.79;;;11.12;100.00
49645;BME280;36494;50.730;-1.932;2022-12-22T11:50:06;99800.54;;;11.12;100.00
49645;BME280;36494;50.730;-1.932;2022-12-22T11:52:36;99809.77;;;11.11;100.00
49645;BME280;36494;50.730;-1.932;2022-12-22T11:55:04;99800.44;;;11.15;100.00
49645;BME280;36494;50.730;-1.932;2022-12-22T11:57:22;99795.21;;;11.12;100.00
49645;BME280;36494;50.730;-1.932;2022-12-22T11:59:48;99797.58;;;11.16;100.00
49645;BME280;36494;50.730;-1.932;2022-12-22T12:02:25;99797.59;;;11.14;100.00
49645;BME280;36494;50.730;-1.932;2022-12-22T12:07:07;99788.57;;;11.14;100.00
49645;BME280;36494;50.730;-1.932;2022-12-22T12:09:34;99790.07;;;11.16;100.00
49645;BME280;36494;50.730;-1.932;2022-12-22T12:11:55;99784.77;;;11.12;100.00
49645;BME280;36494;50.730;-1.932;2022-12-22T12:14:20;99784.17;;;11.19;100.00
49645;BME280;36494;50.730;-1.932;2022-12-22T12:16:45;99787.97;;;11.19;100.00
49645;BME280;36494;50.730;-1.932;2022-12-22T12:19:21;99788.36;;;11.16;100.00
49645;BME280;36494;50.730;-1.932;2022-12-22T12:21:38;99785.98;;;11.17;100.00
49645;BME280;36494;50.730;-1.932;2022-12-22T12:24:12;99784.89;;;11.14;100.00
49645;BME280;36494;50.730;-1.932;2022-12-22T12:26:24;99773.58;;;11.18;100.00
49645;BME280;36494;50.730;-1.932;2022-12-22T12:28:54;99775.38;;;11.22;100.00
49645;BME280;36494;50.730;-1.932;2022-12-22T12:31:14;99768.42;;;11.23;100.00
49645;BME280;36494;50.730;-1.932;2022-12-22T12:33:42;99767.40;;;11.30;100.00
49645;BME280;36494;50.730;-1.932;2022-12-22T12:36:10;99767.39;;;11.30;100.00
49645;BME280;36494;50.730;-1.932;2022-12-22T12:38:36;99765.42;;;11.24;100.00
49645;BME280;36494;50.730;-1.932;2022-12-22T12:41:00;99767.04;;;11.29;100.00